sensor_id;sensor_type;location;lat;lon;timestamp;P1;durP1;ratioP1;P2;durP2;ratioP2
20443;SDS011;10381;53.730;10.010;2023-04-03T00:01:29;47.90;;;43.30;;
20443;SDS011;10381;53.730;10.010;2023-04-03T00:05:29;46.75;;;42.00;;
20443;SDS011;10381;53.730;10.010;2023-04-03T00:09:30;47.85;;;43.03;;
20443;SDS011;10381;53.730;10.010;2023-04-03T00:13:32;49.77;;;44.47;;
20443;SDS011;10381;53.730;10.010;2023-04-03T00:17:32;51.03;;;45.58;;
20443;SDS011;10381;53.730;10.010;2023-04-03T00:21:33;50.05;;;44.90;;
20443;SDS011;10381;53.730;10.010;2023-04-03T00:25:33;50.08;;;44.95;;
20443;SDS011;10381;53.730;10.010;2023-04-03T00:29:34;50.55;;;45.13;;
20443;SDS011;10381;53.730;10.010;2023-04-03T00:33:34;49.08;;;43.97;;
20443;SDS011;10381;53.730;10.010;2023-04-03T00:37:34;49.65;;;44.65;;
20443;SDS011;10381;53.730;10.010;2023-04-03T00:41:35;52.67;;;45.28;;
20443;SDS011;10381;53.730;10.010;2023-04-03T00:45:36;53.07;;;45.03;;
20443;SDS011;10381;53.730;10.010;2023-04-03T00:49:39;53.80;;;46.28;;
20443;SDS011;10381;53.730;10.010;2023-04-03T00:53:44;57.53;;;46.30;;
20443;SDS011;10381;53.730;10.010;2023-04-03T00:57:49;53.53;;;47.92;;
20443;SDS011;10381;53.730;10.010;2023-04-03T01:01:49;58.92;;;47.40;;
20443;SDS011;10381;53.730;10.010;2023-04-03T01:05:50;55.85;;;47.20;;
20443;SDS011;10381;53.730;10.010;2023-04-03T01:09:51;55.25;;;49.75;;
20443;SDS011;10381;53.730;10.010;2023-04-03T01:13:56;54.03;;;48.08;;
20443;SDS011;10381;53.730;10.010;2023-04-03T01:17:57;50.87;;;45.53;;
20443;SDS011;10381;53.730;10.010;2023-04-03T01:22:15;53.45;;;47.75;;
20443;SDS011;10381;53.730;10.010;2023-04-03T01:26:25;52.65;;;46.30;;
20443;SDS011;10381;53.730;10.010;2023-04-03T01:30:27;54.28;;;48.13;;
20443;SDS011;10381;53.730;10.010;2023-04-03T01:34:31;52.67;;;46.13;;
20443;SDS011;10381;53.730;10.010;2023-04-03T01:38:32;52.40;;;46.80;;
20443;SDS011;10381;53.730;10.010;2023-04-03T01:42:32;51.38;;;46.00;;
20443;SDS011;10381;53.730;10.010;2023-04-03T01:46:32;50.70;;;45.20;;
20443;SDS011;10381;53.730;10.010;2023-04-03T01:50:33;56.50;;;50.05;;
20443;SDS011;10381;53.730;10.010;2023-04-03T01:54:34;57.35;;;48.83;;
20443;SDS011;10381;53.730;10.010;2023-04-03T01:58:34;59.10;;;47.00;;
20443;SDS011;10381;53.730;10.010;2023-04-03T02:02:34;59.00;;;49.17;;
20443;SDS011;10381;53.730;10.010;2023-04-03T02:06:34;56.30;;;48.60;;
20443;SDS011;10381;53.730;10.010;2023-04-03T02:10:35;56.90;;;49.80;;
20443;SDS011;10381;53.730;10.010;2023-04-03T02:14:35;54.97;;;49.07;;
20443;SDS011;10381;53.730;10.010;2023-04-03T02:18:35;52.27;;;46.70;;
20443;SDS011;10381;53.730;10.010;2023-04-03T02:22:36;55.42;;;49.35;;
20443;SDS011;10381;53.730;10.010;2023-04-03T02:26:36;56.13;;;49.27;;
20443;SDS011;10381;53.730;10.010;2023-04-03T02:30:36;58.15;;;47.67;;
20443;SDS011;10381;53.730;10.010;2023-04-03T02:34:37;57.53;;;48.07;;
20443;SDS011;10381;53.730;10.010;2023-04-03T02:38:37;56.13;;;48.27;;
20443;SDS011;10381;53.730;10.010;2023-04-03T02:42:38;54.55;;;48.63;;
20443;SDS011;10381;53.730;10.010;2023-04-03T02:46:38;61.73;;;48.77;;
20443;SDS011;10381;53.730;10.010;2023-04-03T02:50:38;58.63;;;47.80;;
20443;SDS011;10381;53.730;10.010;2023-04-03T02:54:39;54.38;;;48.30;;
20443;SDS011;10381;53.730;10.010;2023-04-03T02:58:39;55.97;;;49.93;;
20443;SDS011;10381;53.730;10.010;2023-04-03T03:02:40;58.95;;;50.10;;
20443;SDS011;10381;53.730;10.010;2023-04-03T03:06:40;55.90;;;48.65;;
20443;SDS011;10381;53.730;10.010;2023-04-03T03:10:41;58.45;;;48.92;;
20443;SDS011;10381;53.730;10.010;2023-04-03T03:14:41;58.50;;;49.43;;
20443;SDS011;10381;53.730;10.010;2023-04-03T03:18:42;57.85;;;49.40;;
20443;SDS011;10381;53.730;10.010;2023-04-03T03:22:43;55.37;;;49.23;;
20443;SDS011;10381;53.730;10.010;2023-04-03T03:26:43;62.47;;;49.47;;
20443;SDS011;10381;53.730;10.010;2023-04-03T03:30:43;65.67;;;50.70;;
20443;SDS011;10381;53.730;10.010;2023-04-03T03:34:43;63.10;;;53.33;;
20443;SDS011;10381;53.730;10.010;2023-04-03T03:38:44;58.50;;;50.60;;
20443;SDS011;10381;53.730;10.010;2023-04-03T03:42:44;63.65;;;53.13;;
20443;SDS011;10381;53.730;10.010;2023-04-03T03:46:45;57.05;;;50.75;;
20443;SDS011;10381;53.730;10.010;2023-04-03T03:50:45;58.63;;;49.78;;
20443;SDS011;10381;53.730;10.010;2023-04-03T03:54:45;58.80;;;52.40;;
20443;SDS011;10381;53.730;10.010;2023-04-03T03:58:46;58.13;;;50.87;;
20443;SDS011;10381;53.730;10.010;2023-04-03T04:02:46;60.75;;;52.20;;
20443;SDS011;10381;53.730;10.010;2023-04-03T04:06:46;63.73;;;54.90;;
20443;SDS011;10381;53.730;10.010;2023-04-03T04:10:47;64.20;;;55.47;;
20443;SDS011;10381;53.730;10.010;2023-04-03T04:14:47;58.70;;;51.50;;
20443;SDS011;10381;53.730;10.010;2023-04-03T04:18:47;61.73;;;52.47;;
20443;SDS011;10381;53.730;10.010;2023-04-03T04:22:47;60.43;;;51.73;;
20443;SDS011;10381;53.730;10.010;2023-04-03T04:26:48;62.30;;;54.13;;
20443;SDS011;10381;53.730;10.010;2023-04-03T04:30:48;61.60;;;51.17;;
20443;SDS011;10381;53.730;10.010;2023-04-03T04:34:48;64.80;;;53.73;;
20443;SDS011;10381;53.730;10.010;2023-04-03T04:38:49;63.45;;;53.30;;
20443;SDS011;10381;53.730;10.010;2023-04-03T04:42:52;64.93;;;55.15;;
20443;SDS011;10381;53.730;10.010;2023-04-03T04:46:53;63.47;;;54.33;;
20443;SDS011;10381;53.730;10.010;2023-04-03T04:50:53;67.35;;;56.17;;
20443;SDS011;10381;53.730;10.010;2023-04-03T04:54:53;60.00;;;53.07;;
20443;SDS011;10381;53.730;10.010;2023-04-03T04:58:54;61.35;;;52.70;;
20443;SDS011;10381;53.730;10.010;2023-04-03T05:02:54;61.57;;;52.80;;
20443;SDS011;10381;53.730;10.010;2023-04-03T05:06:54;58.83;;;51.23;;
20443;SDS011;10381;53.730;10.010;2023-04-03T05:10:54;64.10;;;46.40;;
20443;SDS011;10381;53.730;10.010;2023-04-03T05:14:55;56.33;;;43.90;;
20443;SDS011;10381;53.730;10.010;2023-04-03T05:18:55;57.97;;;43.87;;
20443;SDS011;10381;53.730;10.010;2023-04-03T05:22:55;54.70;;;46.93;;
20443;SDS011;10381;53.730;10.010;2023-04-03T05:26:55;68.10;;;55.57;;
20443;SDS011;10381;53.730;10.010;2023-04-03T05:30:56;83.28;;;61.65;;
20443;SDS011;10381;53.730;10.010;2023-04-03T05:34:57;78.18;;;62.35;;
20443;SDS011;10381;53.730;10.010;2023-04-03T05:38:57;82.67;;;65.83;;
20443;SDS011;10381;53.730;10.010;2023-04-03T05:42:58;78.07;;;60.27;;
20443;SDS011;10381;53.730;10.010;2023-04-03T05:46:58;57.87;;;51.67;;
20443;SDS011;10381;53.730;10.010;2023-04-03T05:50:59;45.85;;;40.45;;
20443;SDS011;10381;53.730;10.010;2023-04-03T05:55:00;36.85;;;28.30;;
20443;SDS011;10381;53.730;10.010;2023-04-03T05:59:00;32.00;;;24.00;;
20443;SDS011;10381;53.730;10.010;2023-04-03T06:03:00;26.20;;;22.10;;
20443;SDS011;10381;53.730;10.010;2023-04-03T06:07:01;26.25;;;22.60;;
20443;SDS011;10381;53.730;10.010;2023-04-03T06:11:02;25.55;;;22.85;;
20443;SDS011;10381;53.730;10.010;2023-04-03T06:15:02;24.63;;;22.02;;
20443;SDS011;10381;53.730;10.010;2023-04-03T06:19:03;24.35;;;21.35;;
20443;SDS011;10381;53.730;10.010;2023-04-03T06:23:04;25.35;;;22.10;;
20443;SDS011;10381;53.730;10.010;2023-04-03T06:27:04;30.27;;;24.85;;
20443;SDS011;10381;53.730;10.010;2023-04-03T06:31:05;32.22;;;27.08;;
20443;SDS011;10381;53.730;10.010;2023-04-03T06:35:05;38.87;;;26.17;;
20443;SDS011;10381;53.730;10.010;2023-04-03T06:39:06;29.27;;;25.88;;
20443;SDS011;10381;53.730;10.010;2023-04-03T06:43:06;30.90;;;25.25;;
20443;SDS011;10381;53.730;10.010;2023-04-03T06:47:09;29.35;;;26.00;;
20443;SDS011;10381;53.730;10.010;2023-04-03T06:51:16;26.85;;;24.15;;
20443;SDS011;10381;53.730;10.010;2023-04-03T06:55:18;29.48;;;22.75;;
20443;SDS011;10381;53.730;10.010;2023-04-03T06:59:19;24.80;;;21.67;;
20443;SDS011;10381;53.730;10.010;2023-04-03T07:03:19;24.37;;;21.90;;
20443;SDS011;10381;53.730;10.010;2023-04-03T07:07:20;27.20;;;22.30;;
20443;SDS011;10381;53.730;10.010;2023-04-03T07:11:20;26.27;;;21.10;;
20443;SDS011;10381;53.730;10.010;2023-04-03T07:15:20;30.70;;;21.30;;
20443;SDS011;10381;53.730;10.010;2023-04-03T07:19:21;22.08;;;19.98;;
20443;SDS011;10381;53.730;10.010;2023-04-03T07:23:24;34.25;;;20.10;;
20443;SDS011;10381;53.730;10.010;2023-04-03T07:27:25;26.65;;;20.17;;
20443;SDS011;10381;53.730;10.010;2023-04-03T07:31:25;22.70;;;19.92;;
20443;SDS011;10381;53.730;10.010;2023-04-03T07:35:26;23.13;;;20.67;;
20443;SDS011;10381;53.730;10.010;2023-04-03T07:39:26;21.73;;;19.63;;
20443;SDS011;10381;53.730;10.010;2023-04-03T07:43:27;20.98;;;18.83;;
20443;SDS011;10381;53.730;10.010;2023-04-03T07:47:28;24.88;;;19.50;;
20443;SDS011;10381;53.730;10.010;2023-04-03T07:51:28;21.65;;;19.05;;
20443;SDS011;10381;53.730;10.010;2023-04-03T07:55:29;21.08;;;18.98;;
20443;SDS011;10381;53.730;10.010;2023-04-03T07:59:32;22.27;;;19.98;;
20443;SDS011;10381;53.730;10.010;2023-04-03T08:03:32;21.95;;;19.42;;
20443;SDS011;10381;53.730;10.010;2023-04-03T08:07:32;22.17;;;19.23;;
20443;SDS011;10381;53.730;10.010;2023-04-03T08:11:33;21.80;;;19.50;;
20443;SDS011;10381;53.730;10.010;2023-04-03T08:15:33;23.93;;;19.70;;
20443;SDS011;10381;53.730;10.010;2023-04-03T08:19:33;22.25;;;20.15;;
20443;SDS011;10381;53.730;10.010;2023-04-03T08:23:34;22.77;;;20.23;;
20443;SDS011;10381;53.730;10.010;2023-04-03T08:27:34;24.38;;;21.40;;
20443;SDS011;10381;53.730;10.010;2023-04-03T08:31:35;21.63;;;19.52;;
20443;SDS011;10381;53.730;10.010;2023-04-03T08:35:39;20.83;;;18.80;;
20443;SDS011;10381;53.730;10.010;2023-04-03T08:39:40;21.13;;;19.13;;
20443;SDS011;10381;53.730;10.010;2023-04-03T08:48:04;20.63;;;18.75;;
20443;SDS011;10381;53.730;10.010;2023-04-03T08:52:11;19.85;;;17.15;;
20443;SDS011;10381;53.730;10.010;2023-04-03T08:56:14;20.17;;;18.27;;
20443;SDS011;10381;53.730;10.010;2023-04-03T09:00:20;20.05;;;18.00;;
20443;SDS011;10381;53.730;10.010;2023-04-03T09:04:23;19.27;;;17.65;;
20443;SDS011;10381;53.730;10.010;2023-04-03T09:08:34;18.63;;;17.05;;
20443;SDS011;10381;53.730;10.010;2023-04-03T09:12:41;16.65;;;15.13;;
20443;SDS011;10381;53.730;10.010;2023-04-03T09:16:52;14.40;;;13.25;;
20443;SDS011;10381;53.730;10.010;2023-04-03T09:25:31;8.00;;;7.25;;
20443;SDS011;10381;53.730;10.010;2023-04-03T09:29:41;7.03;;;6.53;;
20443;SDS011;10381;53.730;10.010;2023-04-03T09:33:46;7.47;;;6.75;;
20443;SDS011;10381;53.730;10.010;2023-04-03T09:37:53;13.38;;;6.18;;
20443;SDS011;10381;53.730;10.010;2023-04-03T09:42:02;6.28;;;5.88;;
20443;SDS011;10381;53.730;10.010;2023-04-03T09:46:18;7.25;;;6.75;;
20443;SDS011;10381;53.730;10.010;2023-04-03T09:50:24;6.68;;;6.18;;
20443;SDS011;10381;53.730;10.010;2023-04-03T09:54:29;6.63;;;6.05;;
20443;SDS011;10381;53.730;10.010;2023-04-03T09:58:38;8.40;;;5.82;;
20443;SDS011;10381;53.730;10.010;2023-04-03T10:02:42;7.07;;;6.50;;
20443;SDS011;10381;53.730;10.010;2023-04-03T10:06:49;6.83;;;6.33;;
20443;SDS011;10381;53.730;10.010;2023-04-03T10:15:11;6.85;;;6.35;;
20443;SDS011;10381;53.730;10.010;2023-04-03T10:19:22;7.15;;;6.47;;
20443;SDS011;10381;53.730;10.010;2023-04-03T10:23:31;9.48;;;7.20;;
20443;SDS011;10381;53.730;10.010;2023-04-03T10:27:43;7.20;;;6.70;;
20443;SDS011;10381;53.730;10.010;2023-04-03T10:40:29;8.93;;;6.28;;
20443;SDS011;10381;53.730;10.010;2023-04-03T10:44:41;9.43;;;7.10;;
20443;SDS011;10381;53.730;10.010;2023-04-03T10:49:06;6.85;;;6.22;;
20443;SDS011;10381;53.730;10.010;2023-04-03T10:57:43;6.70;;;6.20;;
20443;SDS011;10381;53.730;10.010;2023-04-03T11:01:48;7.22;;;6.53;;
20443;SDS011;10381;53.730;10.010;2023-04-03T11:05:52;5.28;;;4.88;;
20443;SDS011;10381;53.730;10.010;2023-04-03T11:09:56;8.75;;;6.60;;
20443;SDS011;10381;53.730;10.010;2023-04-03T11:14:03;6.28;;;5.88;;
20443;SDS011;10381;53.730;10.010;2023-04-03T11:18:10;7.07;;;6.38;;
20443;SDS011;10381;53.730;10.010;2023-04-03T11:22:20;6.60;;;6.00;;
20443;SDS011;10381;53.730;10.010;2023-04-03T11:26:25;14.13;;;6.63;;
20443;SDS011;10381;53.730;10.010;2023-04-03T11:34:51;6.35;;;5.95;;
20443;SDS011;10381;53.730;10.010;2023-04-03T11:38:57;7.18;;;6.60;;
20443;SDS011;10381;53.730;10.010;2023-04-03T11:43:05;7.05;;;6.40;;
20443;SDS011;10381;53.730;10.010;2023-04-03T11:51:49;6.78;;;6.38;;
20443;SDS011;10381;53.730;10.010;2023-04-03T11:59:50;7.07;;;6.50;;
20443;SDS011;10381;53.730;10.010;2023-04-03T12:08:42;6.60;;;6.15;;
20443;SDS011;10381;53.730;10.010;2023-04-03T12:12:36;6.88;;;6.30;;
20443;SDS011;10381;53.730;10.010;2023-04-03T12:20:46;6.63;;;6.10;;
20443;SDS011;10381;53.730;10.010;2023-04-03T12:24:50;9.45;;;5.57;;
20443;SDS011;10381;53.730;10.010;2023-04-03T12:28:52;5.47;;;5.15;;
20443;SDS011;10381;53.730;10.010;2023-04-03T12:37:26;9.32;;;7.35;;
20443;SDS011;10381;53.730;10.010;2023-04-03T12:41:37;7.50;;;6.90;;
20443;SDS011;10381;53.730;10.010;2023-04-03T12:49:59;7.03;;;6.50;;
20443;SDS011;10381;53.730;10.010;2023-04-03T12:54:03;6.50;;;6.00;;
20443;SDS011;10381;53.730;10.010;2023-04-03T12:58:31;7.38;;;6.78;;
20443;SDS011;10381;53.730;10.010;2023-04-03T13:02:32;7.10;;;6.50;;
20443;SDS011;10381;53.730;10.010;2023-04-03T13:06:37;8.43;;;6.25;;
20443;SDS011;10381;53.730;10.010;2023-04-03T13:10:49;6.30;;;5.80;;
20443;SDS011;10381;53.730;10.010;2023-04-03T13:14:56;6.70;;;6.07;;
20443;SDS011;10381;53.730;10.010;2023-04-03T13:18:58;7.50;;;6.75;;
20443;SDS011;10381;53.730;10.010;2023-04-03T13:23:04;7.07;;;6.55;;
20443;SDS011;10381;53.730;10.010;2023-04-03T13:27:11;7.53;;;5.95;;
20443;SDS011;10381;53.730;10.010;2023-04-03T13:35:30;7.55;;;6.72;;
20443;SDS011;10381;53.730;10.010;2023-04-03T13:39:35;9.82;;;6.68;;
20443;SDS011;10381;53.730;10.010;2023-04-03T13:43:37;7.15;;;6.45;;
20443;SDS011;10381;53.730;10.010;2023-04-03T13:47:39;6.22;;;5.82;;
20443;SDS011;10381;53.730;10.010;2023-04-03T13:51:41;6.63;;;6.10;;
20443;SDS011;10381;53.730;10.010;2023-04-03T13:55:53;6.13;;;5.65;;
20443;SDS011;10381;53.730;10.010;2023-04-03T14:00:19;6.68;;;6.07;;
20443;SDS011;10381;53.730;10.010;2023-04-03T14:04:29;17.33;;;6.38;;
20443;SDS011;10381;53.730;10.010;2023-04-03T14:08:32;6.22;;;5.72;;
20443;SDS011;10381;53.730;10.010;2023-04-03T14:12:33;8.02;;;5.75;;
20443;SDS011;10381;53.730;10.010;2023-04-03T14:16:37;6.32;;;5.75;;
20443;SDS011;10381;53.730;10.010;2023-04-03T14:20:41;7.20;;;5.15;;
20443;SDS011;10381;53.730;10.010;2023-04-03T14:24:42;6.10;;;5.60;;
20443;SDS011;10381;53.730;10.010;2023-04-03T14:28:45;8.30;;;5.82;;
20443;SDS011;10381;53.730;10.010;2023-04-03T14:32:46;5.70;;;5.28;;
20443;SDS011;10381;53.730;10.010;2023-04-03T14:36:47;6.10;;;5.70;;
20443;SDS011;10381;53.730;10.010;2023-04-03T14:40:48;6.43;;;5.83;;
20443;SDS011;10381;53.730;10.010;2023-04-03T14:44:48;6.05;;;5.55;;
20443;SDS011;10381;53.730;10.010;2023-04-03T14:48:49;6.05;;;5.50;;
20443;SDS011;10381;53.730;10.010;2023-04-03T14:52:50;8.35;;;6.32;;
20443;SDS011;10381;53.730;10.010;2023-04-03T14:56:55;11.27;;;5.65;;
20443;SDS011;10381;53.730;10.010;2023-04-03T15:00:56;6.93;;;6.20;;
20443;SDS011;10381;53.730;10.010;2023-04-03T15:04:57;7.73;;;6.00;;
20443;SDS011;10381;53.730;10.010;2023-04-03T15:08:58;8.77;;;7.00;;
20443;SDS011;10381;53.730;10.010;2023-04-03T15:12:58;8.33;;;7.07;;
20443;SDS011;10381;53.730;10.010;2023-04-03T15:16:59;16.52;;;7.00;;
20443;SDS011;10381;53.730;10.010;2023-04-03T15:20:59;7.50;;;6.90;;
20443;SDS011;10381;53.730;10.010;2023-04-03T15:24:59;7.40;;;5.70;;
20443;SDS011;10381;53.730;10.010;2023-04-03T15:29:00;6.80;;;6.23;;
20443;SDS011;10381;53.730;10.010;2023-04-03T15:33:00;5.70;;;5.05;;
20443;SDS011;10381;53.730;10.010;2023-04-03T15:37:00;8.40;;;5.90;;
20443;SDS011;10381;53.730;10.010;2023-04-03T15:41:01;5.95;;;5.53;;
20443;SDS011;10381;53.730;10.010;2023-04-03T15:45:01;7.20;;;5.60;;
20443;SDS011;10381;53.730;10.010;2023-04-03T15:49:02;5.78;;;4.95;;
20443;SDS011;10381;53.730;10.010;2023-04-03T15:53:02;7.05;;;5.68;;
20443;SDS011;10381;53.730;10.010;2023-04-03T15:57:03;10.90;;;5.03;;
20443;SDS011;10381;53.730;10.010;2023-04-03T16:01:03;6.85;;;6.18;;
20443;SDS011;10381;53.730;10.010;2023-04-03T16:05:03;6.45;;;5.90;;
20443;SDS011;10381;53.730;10.010;2023-04-03T16:09:04;6.45;;;5.85;;
20443;SDS011;10381;53.730;10.010;2023-04-03T16:13:04;6.40;;;5.75;;
20443;SDS011;10381;53.730;10.010;2023-04-03T16:17:05;6.60;;;6.00;;
20443;SDS011;10381;53.730;10.010;2023-04-03T16:21:06;7.30;;;6.68;;
20443;SDS011;10381;53.730;10.010;2023-04-03T16:25:08;9.85;;;6.55;;
20443;SDS011;10381;53.730;10.010;2023-04-03T16:29:09;7.32;;;6.65;;
20443;SDS011;10381;53.730;10.010;2023-04-03T16:33:09;8.45;;;7.35;;
20443;SDS011;10381;53.730;10.010;2023-04-03T16:37:11;8.02;;;7.28;;
20443;SDS011;10381;53.730;10.010;2023-04-03T16:41:11;12.43;;;7.53;;
20443;SDS011;10381;53.730;10.010;2023-04-03T16:45:11;8.10;;;7.50;;
20443;SDS011;10381;53.730;10.010;2023-04-03T16:49:12;8.33;;;7.70;;
20443;SDS011;10381;53.730;10.010;2023-04-03T16:53:12;8.68;;;7.63;;
20443;SDS011;10381;53.730;10.010;2023-04-03T16:57:12;9.00;;;7.53;;
20443;SDS011;10381;53.730;10.010;2023-04-03T17:01:13;9.93;;;7.67;;
20443;SDS011;10381;53.730;10.010;2023-04-03T17:05:18;9.07;;;7.95;;
20443;SDS011;10381;53.730;10.010;2023-04-03T17:09:18;8.73;;;8.03;;
20443;SDS011;10381;53.730;10.010;2023-04-03T17:13:20;9.23;;;8.23;;
20443;SDS011;10381;53.730;10.010;2023-04-03T17:17:21;8.75;;;8.05;;
20443;SDS011;10381;53.730;10.010;2023-04-03T17:21:23;9.02;;;8.23;;
20443;SDS011;10381;53.730;10.010;2023-04-03T17:25:23;9.70;;;8.80;;
20443;SDS011;10381;53.730;10.010;2023-04-03T17:29:24;10.52;;;8.50;;
20443;SDS011;10381;53.730;10.010;2023-04-03T17:33:24;9.25;;;7.65;;
20443;SDS011;10381;53.730;10.010;2023-04-03T17:37:25;8.68;;;7.85;;
20443;SDS011;10381;53.730;10.010;2023-04-03T17:41:25;9.82;;;8.63;;
20443;SDS011;10381;53.730;10.010;2023-04-03T17:45:26;18.48;;;9.45;;
20443;SDS011;10381;53.730;10.010;2023-04-03T17:49:26;9.20;;;8.50;;
20443;SDS011;10381;53.730;10.010;2023-04-03T17:53:26;12.20;;;9.23;;
20443;SDS011;10381;53.730;10.010;2023-04-03T17:57:27;9.55;;;8.60;;
20443;SDS011;10381;53.730;10.010;2023-04-03T18:01:28;10.48;;;9.52;;
20443;SDS011;10381;53.730;10.010;2023-04-03T18:05:30;19.58;;;10.07;;
20443;SDS011;10381;53.730;10.010;2023-04-03T18:09:31;9.90;;;9.10;;
20443;SDS011;10381;53.730;10.010;2023-04-03T18:13:32;10.68;;;9.65;;
20443;SDS011;10381;53.730;10.010;2023-04-03T18:17:36;10.65;;;9.63;;
20443;SDS011;10381;53.730;10.010;2023-04-03T18:21:36;11.07;;;9.97;;
20443;SDS011;10381;53.730;10.010;2023-04-03T18:25:38;10.88;;;9.77;;
20443;SDS011;10381;53.730;10.010;2023-04-03T18:29:39;10.63;;;9.82;;
20443;SDS011;10381;53.730;10.010;2023-04-03T18:33:41;20.48;;;10.18;;
20443;SDS011;10381;53.730;10.010;2023-04-03T18:37:42;11.35;;;10.25;;
20443;SDS011;10381;53.730;10.010;2023-04-03T18:41:43;12.13;;;11.00;;
20443;SDS011;10381;53.730;10.010;2023-04-03T18:45:44;12.38;;;11.13;;
20443;SDS011;10381;53.730;10.010;2023-04-03T18:49:45;12.02;;;10.93;;
20443;SDS011;10381;53.730;10.010;2023-04-03T18:53:46;12.88;;;11.77;;
20443;SDS011;10381;53.730;10.010;2023-04-03T18:57:46;13.05;;;11.52;;
20443;SDS011;10381;53.730;10.010;2023-04-03T19:01:47;11.85;;;10.85;;
20443;SDS011;10381;53.730;10.010;2023-04-03T19:05:47;13.60;;;11.73;;
20443;SDS011;10381;53.730;10.010;2023-04-03T19:09:47;12.47;;;11.40;;
20443;SDS011;10381;53.730;10.010;2023-04-03T19:13:48;13.00;;;11.80;;
20443;SDS011;10381;53.730;10.010;2023-04-03T19:17:48;16.58;;;11.52;;
20443;SDS011;10381;53.730;10.010;2023-04-03T19:21:49;12.70;;;11.50;;
20443;SDS011;10381;53.730;10.010;2023-04-03T19:25:59;30.58;;;14.90;;
20443;SDS011;10381;53.730;10.010;2023-04-03T19:30:05;17.17;;;13.23;;
20443;SDS011;10381;53.730;10.010;2023-04-03T19:34:06;14.50;;;12.15;;
20443;SDS011;10381;53.730;10.010;2023-04-03T19:38:07;13.43;;;11.88;;
20443;SDS011;10381;53.730;10.010;2023-04-03T19:42:07;13.40;;;12.20;;
20443;SDS011;10381;53.730;10.010;2023-04-03T19:46:08;14.02;;;12.70;;
20443;SDS011;10381;53.730;10.010;2023-04-03T19:50:09;15.70;;;14.20;;
20443;SDS011;10381;53.730;10.010;2023-04-03T19:54:09;28.15;;;16.65;;
20443;SDS011;10381;53.730;10.010;2023-04-03T19:58:10;19.50;;;16.70;;
20443;SDS011;10381;53.730;10.010;2023-04-03T20:02:11;18.08;;;16.27;;
20443;SDS011;10381;53.730;10.010;2023-04-03T20:06:11;21.23;;;16.77;;
20443;SDS011;10381;53.730;10.010;2023-04-03T20:10:12;17.98;;;16.13;;
20443;SDS011;10381;53.730;10.010;2023-04-03T20:14:13;20.42;;;17.13;;
20443;SDS011;10381;53.730;10.010;2023-04-03T20:18:16;22.40;;;17.95;;
20443;SDS011;10381;53.730;10.010;2023-04-03T20:22:18;25.35;;;19.30;;
20443;SDS011;10381;53.730;10.010;2023-04-03T20:26:20;18.43;;;16.63;;
20443;SDS011;10381;53.730;10.010;2023-04-03T20:30:22;18.10;;;16.33;;
20443;SDS011;10381;53.730;10.010;2023-04-03T20:34:22;20.58;;;18.63;;
20443;SDS011;10381;53.730;10.010;2023-04-03T20:38:23;20.92;;;18.95;;
20443;SDS011;10381;53.730;10.010;2023-04-03T20:42:24;22.90;;;20.63;;
20443;SDS011;10381;53.730;10.010;2023-04-03T20:46:25;30.70;;;22.13;;
20443;SDS011;10381;53.730;10.010;2023-04-03T20:50:27;24.33;;;21.73;;
20443;SDS011;10381;53.730;10.010;2023-04-03T20:54:28;22.98;;;20.67;;
20443;SDS011;10381;53.730;10.010;2023-04-03T20:58:29;25.70;;;23.10;;
20443;SDS011;10381;53.730;10.010;2023-04-03T21:02:32;28.02;;;25.42;;
20443;SDS011;10381;53.730;10.010;2023-04-03T21:19:51;34.25;;;30.55;;
20443;SDS011;10381;53.730;10.010;2023-04-03T21:23:53;36.60;;;32.97;;
20443;SDS011;10381;53.730;10.010;2023-04-03T21:27:54;39.95;;;33.13;;
20443;SDS011;10381;53.730;10.010;2023-04-03T21:31:58;38.05;;;34.35;;
20443;SDS011;10381;53.730;10.010;2023-04-03T21:35:59;40.33;;;36.15;;
20443;SDS011;10381;53.730;10.010;2023-04-03T21:39:59;40.63;;;36.87;;
20443;SDS011;10381;53.730;10.010;2023-04-03T21:44:00;38.42;;;34.65;;
20443;SDS011;10381;53.730;10.010;2023-04-03T21:48:00;41.23;;;36.90;;
20443;SDS011;10381;53.730;10.010;2023-04-03T21:52:02;46.45;;;41.13;;
20443;SDS011;10381;53.730;10.010;2023-04-03T21:56:03;42.38;;;38.40;;
20443;SDS011;10381;53.730;10.010;2023-04-03T22:00:03;46.17;;;41.30;;
20443;SDS011;10381;53.730;10.010;2023-04-03T22:04:06;50.70;;;45.38;;
20443;SDS011;10381;53.730;10.010;2023-04-03T22:08:06;45.58;;;40.92;;
20443;SDS011;10381;53.730;10.010;2023-04-03T22:12:07;46.22;;;41.55;;
20443;SDS011;10381;53.730;10.010;2023-04-03T22:16:10;48.67;;;44.15;;
20443;SDS011;10381;53.730;10.010;2023-04-03T22:20:11;47.42;;;42.88;;
20443;SDS011;10381;53.730;10.010;2023-04-03T22:24:12;48.65;;;43.78;;
20443;SDS011;10381;53.730;10.010;2023-04-03T22:28:12;50.22;;;45.47;;
20443;SDS011;10381;53.730;10.010;2023-04-03T22:32:12;58.37;;;45.97;;
20443;SDS011;10381;53.730;10.010;2023-04-03T22:36:13;51.13;;;46.15;;
20443;SDS011;10381;53.730;10.010;2023-04-03T22:40:13;52.22;;;47.00;;
20443;SDS011;10381;53.730;10.010;2023-04-03T22:44:13;51.50;;;46.20;;
20443;SDS011;10381;53.730;10.010;2023-04-03T22:48:14;50.30;;;45.37;;
20443;SDS011;10381;53.730;10.010;2023-04-03T22:52:17;50.78;;;45.83;;
20443;SDS011;10381;53.730;10.010;2023-04-03T22:56:18;50.70;;;44.83;;
20443;SDS011;10381;53.730;10.010;2023-04-03T23:00:18;51.67;;;46.63;;
20443;SDS011;10381;53.730;10.010;2023-04-03T23:04:19;51.95;;;46.33;;
20443;SDS011;10381;53.730;10.010;2023-04-03T23:08:19;58.63;;;46.70;;
20443;SDS011;10381;53.730;10.010;2023-04-03T23:12:20;55.80;;;48.95;;
20443;SDS011;10381;53.730;10.010;2023-04-03T23:16:20;53.65;;;48.05;;
20443;SDS011;10381;53.730;10.010;2023-04-03T23:20:21;53.00;;;47.60;;
20443;SDS011;10381;53.730;10.010;2023-04-03T23:24:21;51.73;;;46.47;;
20443;SDS011;10381;53.730;10.010;2023-04-03T23:28:21;60.72;;;46.65;;
20443;SDS011;10381;53.730;10.010;2023-04-03T23:32:21;52.25;;;47.00;;
20443;SDS011;10381;53.730;10.010;2023-04-03T23:36:22;52.43;;;47.13;;
20443;SDS011;10381;53.730;10.010;2023-04-03T23:40:22;53.77;;;48.07;;
20443;SDS011;10381;53.730;10.010;2023-04-03T23:44:22;54.92;;;49.30;;
20443;SDS011;10381;53.730;10.010;2023-04-03T23:48:23;53.35;;;48.00;;
20443;SDS011;10381;53.730;10.010;2023-04-03T23:52:23;60.83;;;50.30;;
20443;SDS011;10381;53.730;10.010;2023-04-03T23:56:23;55.87;;;49.97;;
